Terminal Aerodrome Forecast
Issued by NWS Sterling, VA

Current Version | Previous Version | Text Only | Print | Product List | Glossary Off
Versions: 1 2 3 4 5 6 7 8 9 10 11 12 13 14 15 16 17 18 19 20 21 22

000
FTUS41 KLWX 302300
TAFIAD
TAF
KIAD 302329Z 3100/0106 31025G35KT P6SM SCT050
     FM310500 31017G25KT P6SM FEW250
     FM311500 31011G19KT P6SM FEW050
     FM312100 29008KT P6SM FEW050
     FM312300 29004KT P6SM SCT050=

USA.gov is the U.S. government's official web portal to all federal, state and local government web resources and services.